Time;durP1;ratioP1;P1;durP2;ratioP2;P2;SDS_P1;SDS_P2;PMS_P1;PMS_P2;Temp;Humidity;BMP_temperature;BMP_pressure;BME280_temperature;BME280_humidity;BME280_pressure;Samples;Min_cycle;Max_cycle;Signal;HPM_P1;HPM_P2
2022/06/24 00:00:04;;;;;;;6.05;2.10;;;22.40;61.50;;;;;;5012604;28;20054;-71
2022/06/24 00:02:31;;;;;;;2.25;2.05;;;22.50;60.50;;;;;;5011438;28;20125;-71
2022/06/24 00:04:57;;;;;;;2.58;1.88;;;22.60;60.70;;;;;;5011531;28;20034;-70
2022/06/24 00:07:23;;;;;;;4.22;2.10;;;22.50;60.80;;;;;;5011308;28;20045;-70
2022/06/24 00:09:49;;;;;;;3.67;2.20;;;22.50;60.70;;;;;;5011824;28;20037;-71
2022/06/24 00:12:21;;;;;;;2.83;2.30;;;22.50;60.80;;;;;;5012504;28;20026;-71
2022/06/24 00:14:57;;;;;;;6.70;2.40;;;22.50;60.70;;;;;;5012366;28;20300;-71
2022/06/24 00:17:28;;;;;;;3.30;2.10;;;22.50;60.20;;;;;;5012373;28;20069;-71
2022/06/24 00:19:54;;;;;;;4.15;1.73;;;22.50;59.70;;;;;;5012212;28;20029;-71
2022/06/24 00:22:21;;;;;;;4.40;2.25;;;22.40;60.40;;;;;;5012089;28;20110;-72
2022/06/24 00:24:47;;;;;;;5.30;2.13;;;22.50;60.40;;;;;;5012613;28;20424;-71
2022/06/24 00:27:23;;;;;;;3.40;2.00;;;22.40;59.80;;;;;;5012363;28;20034;-71
2022/06/24 00:29:50;;;;;;;3.83;2.05;;;22.50;60.00;;;;;;5012079;28;20044;-71
2022/06/24 00:32:28;;;;;;;5.07;2.37;;;22.50;59.90;;;;;;5012171;28;20110;-72
2022/06/24 00:35:02;;;;;;;6.20;2.08;;;22.50;60.10;;;;;;5011762;28;20057;-70
2022/06/24 00:37:30;;;;;;;5.60;2.28;;;22.40;60.50;;;;;;5011921;28;20116;-70
2022/06/24 00:40:03;;;;;;;3.30;2.03;;;22.30;61.10;;;;;;5012154;28;20104;-71
2022/06/24 00:42:30;;;;;;;4.25;2.03;;;22.20;61.30;;;;;;5012135;28;20038;-70
2022/06/24 00:45:29;;;;;;;2.92;1.77;;;22.20;61.30;;;;;;5012207;28;20029;-71
2022/06/24 00:47:57;;;;;;;3.13;2.10;;;22.10;61.30;;;;;;5011831;28;20037;-71
2022/06/24 00:50:32;;;;;;;3.83;2.10;;;22.10;61.50;;;;;;5011969;28;20030;-71
2022/06/24 00:53:00;;;;;;;4.70;2.47;;;22.10;61.20;;;;;;5011674;28;20124;-71
2022/06/24 00:55:27;;;;;;;3.53;2.08;;;22.10;62.10;;;;;;5011669;28;20084;-71
2022/06/24 00:57:52;;;;;;;4.67;2.13;;;22.10;60.40;;;;;;5012234;28;20053;-71
2022/06/24 01:00:19;;;;;;;5.55;1.90;;;22.20;59.70;;;;;;5011759;28;20275;-72
2022/06/24 01:02:47;;;;;;;4.95;2.40;;;22.20;59.60;;;;;;5011827;28;20026;-72
2022/06/24 01:05:12;;;;;;;9.27;2.53;;;22.20;59.70;;;;;;5011570;28;20045;-71
2022/06/24 01:07:39;;;;;;;9.20;2.10;;;22.10;59.60;;;;;;5011256;28;20517;-72
2022/06/24 01:10:07;;;;;;;3.30;2.10;;;22.20;59.80;;;;;;5011257;28;20033;-71
2022/06/24 01:12:34;;;;;;;3.42;2.28;;;22.10;60.00;;;;;;5011752;28;20025;-72
2022/06/24 01:15:01;;;;;;;2.65;2.22;;;22.10;59.60;;;;;;5011442;28;20026;-72
2022/06/24 01:17:27;;;;;;;2.70;1.85;;;22.10;59.60;;;;;;5011521;28;20030;-73
2022/06/24 01:19:53;;;;;;;3.83;2.10;;;22.10;59.50;;;;;;5011266;28;20556;-71
2022/06/24 01:22:20;;;;;;;5.13;2.35;;;22.20;59.70;;;;;;5011227;28;20018;-72
2022/06/24 01:24:46;;;;;;;2.15;1.95;;;22.10;59.60;;;;;;5011593;28;20444;-71
2022/06/24 01:27:12;;;;;;;4.50;2.03;;;22.10;59.50;;;;;;5011284;28;20160;-71
2022/06/24 01:29:39;;;;;;;3.83;2.20;;;22.20;59.60;;;;;;5010966;28;20041;-71
2022/06/24 01:32:05;;;;;;;3.45;2.10;;;22.20;59.60;;;;;;5011120;28;20125;-72
2022/06/24 01:34:31;;;;;;;3.97;2.00;;;22.20;59.70;;;;;;5011139;28;20571;-71
2022/06/24 01:36:57;;;;;;;4.53;2.45;;;22.10;59.80;;;;;;5028795;28;20033;-72
2022/06/24 01:39:23;;;;;;;7.85;2.08;;;22.20;59.90;;;;;;5029664;28;20344;-72
2022/06/24 01:41:59;;;;;;;5.53;2.40;;;22.20;59.70;;;;;;5030839;28;20389;-72
2022/06/24 01:44:26;;;;;;;3.55;2.20;;;22.20;59.80;;;;;;5030684;28;20029;-72
2022/06/24 01:46:52;;;;;;;6.00;2.30;;;22.20;60.00;;;;;;5030619;28;20026;-71
2022/06/24 01:49:18;;;;;;;2.75;2.10;;;22.10;60.60;;;;;;5031050;28;20029;-72
2022/06/24 01:52:11;;;;;;;4.82;1.98;;;22.10;61.30;;;;;;5031166;28;20132;-71
2022/06/24 01:54:37;;;;;;;4.82;2.40;;;22.00;61.00;;;;;;5034064;28;20033;-72
2022/06/24 01:57:03;;;;;;;2.20;2.00;;;22.00;60.30;;;;;;5037504;28;20030;-71
2022/06/24 01:59:29;;;;;;;3.88;2.45;;;22.00;60.20;;;;;;5037190;28;20467;-72
2022/06/24 02:02:04;;;;;;;5.78;2.60;;;22.00;59.90;;;;;;5037395;28;20079;-72
2022/06/24 02:04:30;;;;;;;4.40;1.88;;;21.90;61.10;;;;;;5036054;28;20037;-71
2022/06/24 02:06:56;;;;;;;6.60;2.55;;;21.90;60.60;;;;;;5037649;28;20094;-72
2022/06/24 02:09:21;;;;;;;4.15;2.05;;;21.90;60.90;;;;;;5036921;28;20532;-72
2022/06/24 02:14:53;;;;;;;5.88;2.22;;;21.80;61.10;;;;;;5037149;28;20107;-72
2022/06/24 02:17:19;;;;;;;6.03;2.03;;;21.80;61.20;;;;;;5037006;28;20025;-72
2022/06/24 02:19:45;;;;;;;5.85;2.58;;;21.80;61.00;;;;;;5037053;28;20029;-71
2022/06/24 02:22:11;;;;;;;7.70;2.67;;;21.80;61.40;;;;;;5037073;28;20032;-72
2022/06/24 02:24:36;;;;;;;3.97;2.67;;;21.80;61.30;;;;;;5037607;28;20022;-72
2022/06/24 02:27:42;;;;;;;3.53;2.55;;;21.70;61.30;;;;;;5037058;28;20313;-72
2022/06/24 02:30:09;;;;;;;3.80;2.42;;;21.70;61.50;;;;;;5037218;28;20038;-73
2022/06/24 02:32:34;;;;;;;5.78;2.53;;;21.70;61.30;;;;;;5036855;28;20076;-72
2022/06/24 02:35:00;;;;;;;10.00;2.70;;;21.70;61.40;;;;;;5036722;28;20061;-72
2022/06/24 02:37:25;;;;;;;8.63;2.78;;;21.70;61.10;;;;;;5035941;28;20316;-72
2022/06/24 02:39:51;;;;;;;3.47;2.28;;;21.70;61.10;;;;;;5037419;28;20028;-72
2022/06/24 02:42:18;;;;;;;3.22;2.30;;;21.70;61.00;;;;;;5036884;28;20127;-71
2022/06/24 02:44:44;;;;;;;4.57;2.60;;;21.60;61.70;;;;;;5036915;28;20453;-72
2022/06/24 02:47:09;;;;;;;5.55;2.72;;;21.60;61.30;;;;;;5036712;28;20527;-72
2022/06/24 02:49:35;;;;;;;3.83;2.80;;;21.60;61.60;;;;;;5036619;28;20120;-71
2022/06/24 02:52:06;;;;;;;3.45;2.35;;;21.60;62.00;;;;;;5036616;28;20026;-71
2022/06/24 02:54:31;;;;;;;6.88;2.88;;;21.60;62.00;;;;;;5037450;28;20033;-71
2022/06/24 02:57:00;;;;;;;3.08;2.58;;;21.50;62.30;;;;;;5036700;28;20037;-71
2022/06/24 02:59:25;;;;;;;5.20;2.80;;;21.50;61.90;;;;;;5035814;28;20340;-72
2022/06/24 03:01:51;;;;;;;3.63;2.90;;;21.50;62.50;;;;;;5036718;28;20041;-72
2022/06/24 03:04:17;;;;;;;5.68;2.70;;;21.40;62.50;;;;;;5036567;28;20025;-72
2022/06/24 03:06:42;;;;;;;4.13;2.75;;;21.40;62.30;;;;;;5032689;28;20040;-70
2022/06/24 03:09:08;;;;;;;5.32;2.72;;;21.40;62.90;;;;;;5033227;28;20033;-72
2022/06/24 03:11:33;;;;;;;7.32;2.78;;;21.40;63.00;;;;;;5033458;28;20121;-73
2022/06/24 03:13:59;;;;;;;4.55;3.08;;;21.40;62.70;;;;;;5033599;28;20068;-72
2022/06/24 03:16:53;;;;;;;3.35;2.38;;;21.40;62.80;;;;;;5033535;28;20033;-72
2022/06/24 03:20:02;;;;;;;4.28;2.72;;;21.40;63.30;;;;;;5032088;28;20410;-73
2022/06/24 03:22:28;;;;;;;5.40;2.78;;;21.30;63.10;;;;;;5032294;28;20029;-72
2022/06/24 03:24:53;;;;;;;4.53;2.97;;;21.30;63.30;;;;;;5033354;28;20367;-72
2022/06/24 03:27:19;;;;;;;3.65;2.72;;;21.40;63.40;;;;;;5032002;28;20029;-72
2022/06/24 03:29:46;;;;;;;5.82;2.70;;;21.30;63.80;;;;;;5032058;28;20056;-72
2022/06/24 03:32:12;;;;;;;4.82;2.80;;;21.30;63.50;;;;;;5033228;28;20534;-72
2022/06/24 03:34:38;;;;;;;2.75;2.40;;;21.30;64.00;;;;;;5032697;28;20045;-72
2022/06/24 03:37:04;;;;;;;8.32;2.70;;;21.20;64.10;;;;;;5032851;28;20035;-73
2022/06/24 03:39:30;;;;;;;5.70;2.50;;;21.30;64.20;;;;;;5032220;28;20018;-71
2022/06/24 03:41:56;;;;;;;8.63;3.10;;;21.30;63.90;;;;;;5032701;28;20029;-71
2022/06/24 03:44:21;;;;;;;3.22;2.45;;;21.30;64.40;;;;;;5031887;28;20040;-72
2022/06/24 03:46:47;;;;;;;4.22;2.67;;;21.30;64.30;;;;;;5032856;28;20456;-70
2022/06/24 03:49:13;;;;;;;10.75;3.20;;;21.20;64.30;;;;;;5032612;28;20073;-72
2022/06/24 03:51:39;;;;;;;3.67;2.67;;;21.30;64.90;;;;;;5033164;28;20225;-73
2022/06/24 03:54:05;;;;;;;4.00;2.75;;;21.20;65.00;;;;;;5032710;28;20037;-72
2022/06/24 03:56:31;;;;;;;6.18;2.85;;;21.30;64.80;;;;;;5032635;28;20030;-73
2022/06/24 03:58:57;;;;;;;7.13;2.75;;;21.20;65.00;;;;;;5032434;28;20025;-72
2022/06/24 04:01:23;;;;;;;6.22;2.97;;;21.30;65.20;;;;;;5032453;28;20029;-72
2022/06/24 04:03:49;;;;;;;6.60;2.70;;;21.30;65.40;;;;;;5032852;28;20021;-71
2022/06/24 04:06:14;;;;;;;5.38;2.67;;;21.30;65.20;;;;;;5032534;28;20443;-71
2022/06/24 04:08:40;;;;;;;7.43;3.10;;;21.30;65.40;;;;;;5032422;28;20037;-72
2022/06/24 04:11:13;;;;;;;7.15;3.30;;;21.30;65.30;;;;;;5032398;28;20030;-73
2022/06/24 04:13:39;;;;;;;5.03;2.63;;;21.30;65.70;;;;;;5030885;28;20487;-72
2022/06/24 04:16:05;;;;;;;5.13;2.72;;;21.30;65.90;;;;;;5031101;28;20185;-72
2022/06/24 04:18:31;;;;;;;6.20;2.70;;;21.30;66.10;;;;;;5032758;28;20024;-72
2022/06/24 04:20:57;;;;;;;4.65;2.85;;;21.30;66.10;;;;;;5032273;28;20096;-72
2022/06/24 04:23:22;;;;;;;3.70;2.35;;;21.30;66.00;;;;;;5032260;28;20049;-72
2022/06/24 04:25:48;;;;;;;5.70;2.72;;;21.40;65.60;;;;;;5032013;28;20033;-72
2022/06/24 04:28:14;;;;;;;5.57;2.80;;;21.40;65.50;;;;;;5031972;28;20477;-71
2022/06/24 04:30:40;;;;;;;4.35;2.63;;;21.30;66.00;;;;;;5032373;28;20025;-71
2022/06/24 04:33:06;;;;;;;11.50;2.90;;;21.40;66.20;;;;;;5030834;28;20060;-71
2022/06/24 04:35:32;;;;;;;4.10;2.65;;;21.40;65.90;;;;;;5031956;28;20440;-72
2022/06/24 04:37:58;;;;;;;3.78;2.45;;;21.40;66.50;;;;;;5031750;28;20099;-73
2022/06/24 04:40:23;;;;;;;5.53;2.80;;;21.40;66.50;;;;;;5030910;28;20099;-72
2022/06/24 04:42:49;;;;;;;7.25;3.38;;;21.40;66.90;;;;;;5032203;28;20127;-73
2022/06/24 04:45:15;;;;;;;9.52;3.03;;;21.40;67.30;;;;;;5031786;28;20036;-71
2022/06/24 04:47:41;;;;;;;4.75;2.72;;;21.50;67.10;;;;;;5031684;28;20107;-73
2022/06/24 04:50:08;;;;;;;8.55;2.63;;;21.50;66.80;;;;;;5031366;28;20041;-72
2022/06/24 04:52:34;;;;;;;5.70;2.90;;;21.60;66.70;;;;;;5031339;28;20499;-72
2022/06/24 04:55:01;;;;;;;8.13;3.13;;;21.60;66.70;;;;;;5030696;28;20036;-71
2022/06/24 04:57:27;;;;;;;5.72;3.03;;;21.60;66.90;;;;;;5031890;28;20018;-70
2022/06/24 04:59:53;;;;;;;8.50;2.78;;;21.60;67.50;;;;;;5031359;28;20033;-72
2022/06/24 05:02:19;;;;;;;4.60;2.78;;;21.60;67.50;;;;;;5031311;28;20029;-73
2022/06/24 05:04:44;;;;;;;9.73;2.90;;;21.60;66.70;;;;;;5031180;28;20033;-73
2022/06/24 05:07:10;;;;;;;6.82;3.17;;;21.70;66.60;;;;;;5031388;28;20029;-72
2022/06/24 05:09:36;;;;;;;6.88;3.00;;;21.80;66.90;;;;;;5031475;28;20363;-72
2022/06/24 05:12:03;;;;;;;7.93;3.20;;;21.70;68.00;;;;;;5031396;28;20080;-72
2022/06/24 05:14:29;;;;;;;6.95;2.75;;;21.80;68.40;;;;;;5030210;28;20353;-72
2022/06/24 05:16:55;;;;;;;7.07;2.53;;;21.80;68.70;;;;;;5029940;28;20049;-72
2022/06/24 05:19:22;;;;;;;4.57;2.92;;;21.90;68.10;;;;;;5031107;28;20374;-72
2022/06/24 05:21:48;;;;;;;4.45;2.53;;;22.00;68.00;;;;;;5031765;28;20105;-72
2022/06/24 05:24:13;;;;;;;9.10;2.60;;;22.10;68.00;;;;;;5031095;28;20527;-71
2022/06/24 05:26:44;;;;;;;7.28;2.60;;;22.10;67.70;;;;;;5030941;28;20471;-73
2022/06/24 05:29:10;;;;;;;11.60;3.03;;;22.20;68.30;;;;;;5030170;28;20030;-72
2022/06/24 05:31:37;;;;;;;4.20;2.55;;;22.30;67.90;;;;;;5030824;28;20029;-72
2022/06/24 05:34:02;;;;;;;10.55;6.10;;;22.30;68.10;;;;;;5030744;28;20065;-72
2022/06/24 05:36:28;;;;;;;7.22;3.85;;;22.30;67.90;;;;;;5030182;28;20455;-72
2022/06/24 05:38:54;;;;;;;4.47;3.00;;;22.40;68.30;;;;;;5030703;28;20034;-73
2022/06/24 05:41:20;;;;;;;4.50;3.10;;;22.50;68.20;;;;;;5030583;28;20030;-71
2022/06/24 05:43:46;;;;;;;12.25;5.93;;;22.60;67.90;;;;;;5029619;28;20033;-71
2022/06/24 05:46:13;;;;;;;9.63;5.63;;;22.60;68.20;;;;;;5030692;28;20083;-73
2022/06/24 05:48:39;;;;;;;6.07;2.80;;;22.70;68.20;;;;;;5030980;28;20626;-71
2022/06/24 05:51:13;;;;;;;11.88;3.65;;;22.80;68.50;;;;;;5029514;28;20383;-71
2022/06/24 05:56:23;;;;;;;4.82;2.85;;;23.10;68.40;;;;;;5030658;28;20044;-70
2022/06/24 05:58:50;;;;;;;10.95;2.95;;;23.20;68.40;;;;;;5030572;28;20026;-71
2022/06/24 06:01:15;;;;;;;5.57;2.92;;;23.30;68.30;;;;;;5030510;28;20196;-70
2022/06/24 06:03:41;;;;;;;6.82;3.25;;;23.40;68.40;;;;;;5030859;28;20033;-70
2022/06/24 06:06:07;;;;;;;8.77;3.30;;;23.50;68.30;;;;;;5030326;28;20098;-70
2022/06/24 06:08:34;;;;;;;9.40;3.42;;;23.60;67.90;;;;;;5030633;28;20134;-70
2022/06/24 06:11:00;;;;;;;8.40;3.10;;;23.60;67.70;;;;;;5030393;28;20348;-70
2022/06/24 06:13:26;;;;;;;2.63;2.42;;;23.70;67.50;;;;;;5026113;28;20108;-70
2022/06/24 06:15:52;;;;;;;8.45;3.17;;;23.70;67.70;;;;;;5031511;28;20030;-75
2022/06/24 06:18:17;;;;;;;4.80;2.40;;;23.80;66.80;;;;;;5030762;28;20107;-70
2022/06/24 06:20:43;;;;;;;4.57;2.50;;;23.80;66.30;;;;;;5030676;28;20116;-70
2022/06/24 06:23:09;;;;;;;5.97;2.28;;;23.90;67.30;;;;;;5030712;28;20034;-71
2022/06/24 06:25:34;;;;;;;4.57;2.60;;;23.90;66.00;;;;;;5029673;28;20045;-71
2022/06/24 06:28:02;;;;;;;6.40;2.58;;;24.00;66.20;;;;;;5030329;28;20435;-70
2022/06/24 06:30:30;;;;;;;5.77;2.40;;;24.20;66.00;;;;;;5030996;28;20049;-69
2022/06/24 06:32:55;;;;;;;5.00;2.92;;;24.40;65.50;;;;;;5030692;28;20029;-70
2022/06/24 06:35:21;;;;;;;6.20;3.00;;;24.40;65.30;;;;;;5030452;28;20100;-71
2022/06/24 06:37:47;;;;;;;5.78;2.78;;;24.50;65.30;;;;;;5030446;28;20092;-71
2022/06/24 06:40:12;;;;;;;6.55;3.03;;;24.50;65.20;;;;;;5031384;28;20032;-69
2022/06/24 06:42:38;;;;;;;4.55;2.80;;;24.60;65.50;;;;;;5034648;28;20032;-70
2022/06/24 06:45:05;;;;;;;5.05;2.80;;;24.60;65.30;;;;;;5034157;28;20037;-71
2022/06/24 06:47:30;;;;;;;18.33;7.75;;;24.70;65.50;;;;;;5033890;28;20034;-73
2022/06/24 06:49:56;;;;;;;7.97;4.32;;;24.80;65.60;;;;;;5033648;28;20497;-70
2022/06/24 06:52:22;;;;;;;7.20;3.10;;;24.80;65.50;;;;;;5033764;28;20037;-70
2022/06/24 06:54:48;;;;;;;5.88;3.50;;;24.90;65.70;;;;;;5034168;28;20037;-73
2022/06/24 06:57:13;;;;;;;5.70;2.72;;;24.90;65.20;;;;;;5033991;28;20368;-70
2022/06/24 06:59:39;;;;;;;3.05;2.72;;;24.90;65.30;;;;;;5033759;28;20030;-71
2022/06/24 07:02:05;;;;;;;10.52;3.00;;;25.10;65.50;;;;;;5033820;28;20033;-72
2022/06/24 07:04:30;;;;;;;9.63;2.88;;;25.20;65.30;;;;;;5033633;28;20041;-73
2022/06/24 07:06:56;;;;;;;3.55;2.67;;;25.30;64.60;;;;;;5032964;28;20043;-72
2022/06/24 07:09:22;;;;;;;7.80;2.95;;;25.40;64.50;;;;;;5033352;28;20195;-71
2022/06/24 07:11:47;;;;;;;4.38;2.38;;;25.40;64.10;;;;;;5033651;28;20123;-71
2022/06/24 07:14:13;;;;;;;4.63;2.75;;;25.80;63.70;;;;;;5033229;28;20463;-70
2022/06/24 07:16:38;;;;;;;4.43;2.72;;;26.30;63.70;;;;;;5033346;28;20341;-72
2022/06/24 07:19:04;;;;;;;7.25;2.60;;;26.60;62.70;;;;;;5033416;28;20025;-70
2022/06/24 07:21:30;;;;;;;3.53;2.17;;;26.60;62.10;;;;;;5033843;28;20022;-71
2022/06/24 07:23:55;;;;;;;7.38;3.15;;;26.50;62.00;;;;;;5032258;28;20029;-70
2022/06/24 07:26:21;;;;;;;6.88;3.08;;;26.50;62.20;;;;;;5033457;28;20430;-72
2022/06/24 07:28:47;;;;;;;7.05;2.78;;;26.40;62.60;;;;;;5033104;28;20109;-70
2022/06/24 07:31:17;;;;;;;5.15;2.35;;;26.40;62.80;;;;;;5033192;28;20033;-69
2022/06/24 07:33:43;;;;;;;4.63;2.80;;;26.50;63.30;;;;;;5033758;28;20051;-71
2022/06/24 07:36:09;;;;;;;5.82;2.55;;;26.50;63.30;;;;;;5031748;28;20068;-71
2022/06/24 07:38:35;;;;;;;5.05;2.67;;;26.40;63.30;;;;;;5033004;28;20029;-70
2022/06/24 07:41:01;;;;;;;8.23;2.92;;;26.50;63.30;;;;;;5032849;28;20363;-71
2022/06/24 07:43:27;;;;;;;14.65;5.35;;;26.40;63.40;;;;;;5032669;28;20037;-73
2022/06/24 07:45:53;;;;;;;16.13;3.95;;;26.50;63.80;;;;;;5033140;28;20021;-74
2022/06/24 07:48:19;;;;;;;3.15;2.83;;;26.60;63.90;;;;;;5031665;28;20029;-71
2022/06/24 07:50:45;;;;;;;8.55;2.80;;;26.50;63.70;;;;;;5032963;28;20344;-72
2022/06/24 07:53:11;;;;;;;3.22;2.90;;;26.70;64.10;;;;;;5032101;28;20033;-72
2022/06/24 07:58:21;;;;;;;8.02;2.83;;;27.10;63.30;;;;;;5032929;28;20416;-72
2022/06/24 08:00:48;;;;;;;3.63;2.47;;;27.30;62.70;;;;;;5032890;28;20104;-72
2022/06/24 08:03:15;;;;;;;3.55;2.72;;;27.40;62.70;;;;;;5032569;28;20111;-73
2022/06/24 08:05:40;;;;;;;8.27;2.30;;;27.50;61.80;;;;;;5032211;28;20037;-71
2022/06/24 08:08:06;;;;;;;4.20;2.20;;;27.60;62.20;;;;;;5031107;28;20037;-71
2022/06/24 08:10:32;;;;;;;6.53;2.38;;;28.00;61.20;;;;;;5031211;28;20459;-72
2022/06/24 08:12:58;;;;;;;6.55;2.92;;;28.50;60.60;;;;;;5032690;28;20040;-72
2022/06/24 08:15:24;;;;;;;9.15;1.98;;;29.00;59.80;;;;;;5032313;28;20033;-73
2022/06/24 08:17:50;;;;;;;5.05;2.00;;;29.80;59.30;;;;;;5032225;28;20030;-72
2022/06/24 08:20:15;;;;;;;3.88;2.05;;;30.30;58.00;;;;;;5032160;28;20113;-72
2022/06/24 08:22:41;;;;;;;6.30;2.60;;;30.60;56.70;;;;;;5031983;28;20112;-71
2022/06/24 08:25:07;;;;;;;2.83;1.70;;;30.50;55.80;;;;;;5030824;28;20037;-71
2022/06/24 08:27:33;;;;;;;4.30;2.45;;;30.70;56.90;;;;;;5032239;28;20028;-72
2022/06/24 08:29:59;;;;;;;6.95;2.95;;;30.80;56.10;;;;;;5031990;28;20030;-69
2022/06/24 08:32:25;;;;;;;7.00;2.55;;;31.20;55.10;;;;;;5031976;28;20116;-71
2022/06/24 08:34:52;;;;;;;8.60;2.55;;;32.10;54.80;;;;;;5031696;28;20201;-70
2022/06/24 08:37:18;;;;;;;2.67;1.70;;;32.60;53.70;;;;;;5031035;28;20440;-69
2022/06/24 08:39:43;;;;;;;5.13;2.03;;;33.40;53.20;;;;;;5032294;28;20029;-69
2022/06/24 08:42:12;;;;;;;8.30;2.00;;;34.10;51.90;;;;;;5031535;28;20025;-71
2022/06/24 08:44:39;;;;;;;6.82;2.10;;;34.10;50.10;;;;;;5031516;28;20044;-70
2022/06/24 08:47:05;;;;;;;4.90;1.75;;;33.70;50.30;;;;;;5030446;28;20168;-70
2022/06/24 08:49:34;;;;;;;8.82;2.58;;;33.90;50.40;;;;;;5030263;28;20120;-70
2022/06/24 08:52:01;;;;;;;5.00;2.00;;;34.30;50.00;;;;;;5031894;28;20113;-70
2022/06/24 08:54:30;;;;;;;4.82;1.80;;;34.10;51.20;;;;;;5031587;28;20045;-71
2022/06/24 08:56:57;;;;;;;4.45;2.15;;;34.10;49.80;;;;;;5031393;28;20394;-70
2022/06/24 08:59:23;;;;;;;5.65;1.77;;;33.40;49.90;;;;;;5031377;28;20026;-70
2022/06/24 09:01:50;;;;;;;10.23;1.80;;;32.70;50.40;;;;;;5031315;28;20033;-72
2022/06/24 09:04:15;;;;;;;6.47;2.20;;;32.20;51.10;;;;;;5030538;28;20029;-70
2022/06/24 09:06:41;;;;;;;6.72;2.58;;;31.90;51.50;;;;;;5031759;28;20422;-71
2022/06/24 09:09:08;;;;;;;8.82;2.20;;;31.60;52.70;;;;;;5031365;28;20128;-69
2022/06/24 09:11:39;;;;;;;8.15;5.05;;;31.10;53.80;;;;;;5031465;28;20097;-69
2022/06/24 09:14:06;;;;;;;6.25;3.47;;;30.60;54.50;;;;;;5030236;28;20116;-70
2022/06/24 09:16:35;;;;;;;5.72;2.00;;;30.40;55.00;;;;;;5030170;28;20034;-68
2022/06/24 09:19:03;;;;;;;4.07;2.00;;;30.00;55.60;;;;;;5030934;28;20017;-68
2022/06/24 09:21:39;;;;;;;4.38;2.30;;;29.80;56.00;;;;;;5030338;28;20109;-70
2022/06/24 09:24:05;;;;;;;3.22;2.10;;;29.60;56.60;;;;;;5030894;28;20041;-69
2022/06/24 09:26:36;;;;;;;4.03;1.85;;;29.30;56.50;;;;;;5031033;28;20531;-70
2022/06/24 09:29:13;;;;;;;3.88;1.63;;;29.10;57.50;;;;;;5029813;28;20128;-69
2022/06/24 09:31:39;;;;;;;6.22;1.83;;;28.90;57.70;;;;;;5030725;28;20109;-69
2022/06/24 09:34:25;;;;;;;6.57;2.10;;;28.70;58.30;;;;;;5030756;28;20064;-70
2022/06/24 09:36:50;;;;;;;4.55;1.65;;;28.50;58.90;;;;;;5031058;28;20037;-72
2022/06/24 09:39:17;;;;;;;7.68;1.50;;;28.30;58.90;;;;;;5030715;28;20041;-70
2022/06/24 09:41:48;;;;;;;4.68;1.88;;;28.10;59.60;;;;;;5030853;28;20034;-69
2022/06/24 09:44:14;;;;;;;3.28;1.38;;;27.90;60.10;;;;;;5029637;28;20353;-70
2022/06/24 09:46:40;;;;;;;4.35;1.45;;;27.80;60.60;;;;;;5029552;28;20040;-69
2022/06/24 09:49:14;;;;;;;6.18;1.90;;;27.60;61.40;;;;;;5030539;28;20104;-69
2022/06/24 09:51:43;;;;;;;18.38;10.70;;;27.40;62.20;;;;;;5030913;28;20018;-71
2022/06/24 09:54:09;;;;;;;9.10;5.45;;;27.30;62.40;;;;;;5030463;28;20410;-71
2022/06/24 09:56:38;;;;;;;25.13;14.15;;;27.10;62.80;;;;;;5030597;28;20451;-71
2022/06/24 10:01:50;;;;;;;5.28;1.85;;;26.90;63.70;;;;;;5030726;28;20104;-70
2022/06/24 10:04:19;;;;;;;8.17;2.23;;;26.80;64.10;;;;;;5030296;28;20124;-70
2022/06/24 10:06:47;;;;;;;3.25;1.70;;;26.80;64.50;;;;;;5030753;28;20259;-70
2022/06/24 10:09:14;;;;;;;6.93;1.83;;;26.80;64.90;;;;;;5030604;28;20357;-69
2022/06/24 10:11:44;;;;;;;4.15;1.80;;;26.80;64.40;;;;;;5030336;28;20109;-71
2022/06/24 10:14:12;;;;;;;6.30;1.73;;;26.70;64.30;;;;;;5030409;28;20033;-71
2022/06/24 10:16:39;;;;;;;6.45;1.58;;;26.60;65.30;;;;;;5033736;28;20029;-71
2022/06/24 10:19:06;;;;;;;5.87;2.07;;;26.50;65.70;;;;;;5034529;28;20099;-70
2022/06/24 10:21:32;;;;;;;3.72;1.85;;;26.40;65.40;;;;;;5034741;28;20025;-71
2022/06/24 10:23:58;;;;;;;5.10;1.60;;;26.40;66.30;;;;;;5033327;28;20045;-71
2022/06/24 10:26:29;;;;;;;3.17;1.63;;;26.30;66.60;;;;;;5034360;28;20033;-70
2022/06/24 10:29:03;;;;;;;4.32;1.60;;;26.30;67.10;;;;;;5034330;28;20053;-68
2022/06/24 10:31:56;;;;;;;5.97;2.20;;;26.30;67.40;;;;;;5033132;28;20098;-70
2022/06/24 10:34:30;;;;;;;7.95;2.83;;;26.20;67.30;;;;;;5033814;28;20045;-70
2022/06/24 10:37:05;;;;;;;4.88;1.60;;;26.30;67.40;;;;;;5034395;28;20443;-69
2022/06/24 10:39:43;;;;;;;3.08;1.60;;;26.40;68.00;;;;;;5034049;28;20041;-70
2022/06/24 10:42:10;;;;;;;7.30;1.83;;;26.40;68.00;;;;;;5032866;28;20022;-71
2022/06/24 10:44:38;;;;;;;4.28;1.67;;;26.50;67.90;;;;;;5033869;28;20061;-69
2022/06/24 10:47:15;;;;;;;6.55;2.17;;;26.60;67.90;;;;;;5033593;28;20029;-72
2022/06/24 10:50:00;;;;;;;;;;;26.60;68.00;;;;;;5034238;28;20033;-70
2022/06/24 10:53:02;;;;;;;4.75;1.40;;;26.50;68.40;;;;;;5033666;28;19920;-70
2022/06/24 10:55:31;;;;;;;4.57;1.95;;;26.50;69.20;;;;;;5032655;28;20034;-71
2022/06/24 10:58:13;;;;;;;6.32;2.03;;;26.40;70.40;;;;;;5034022;28;20030;-69
2022/06/24 11:00:39;;;;;;;5.82;2.08;;;26.40;72.20;;;;;;5032441;28;20040;-70
2022/06/24 11:03:05;;;;;;;5.32;1.88;;;26.20;73.20;;;;;;5032314;28;20033;-70
2022/06/24 11:05:33;;;;;;;4.00;1.30;;;26.20;73.70;;;;;;5033573;28;20112;-70
2022/06/24 11:08:00;;;;;;;3.55;1.73;;;26.00;74.80;;;;;;5033327;28;20026;-71
2022/06/24 11:10:30;;;;;;;6.15;1.75;;;26.00;75.20;;;;;;5033057;28;20359;-70
2022/06/24 11:12:58;;;;;;;3.63;1.35;;;26.00;77.00;;;;;;5033770;28;20451;-70
2022/06/24 11:15:34;;;;;;;;;;;25.90;78.60;;;;;;5032677;28;20143;-72
2022/06/24 11:18:09;;;;;;;8.93;1.30;;;25.80;78.10;;;;;;5033172;28;19979;-69
2022/06/24 11:20:37;;;;;;;5.15;1.73;;;25.70;78.50;;;;;;5032124;28;20029;-70
2022/06/24 11:23:22;;;;;;;;;;;25.70;78.50;;;;;;5033456;28;20227;-71
2022/06/24 11:25:49;;;;;;;10.52;1.90;;;25.70;80.90;;;;;;5032962;28;19923;-69
2022/06/24 11:28:27;;;;;;;4.70;1.98;;;25.50;82.50;;;;;;5031802;28;20025;-70
2022/06/24 11:30:55;;;;;;;10.88;3.38;;;25.20;83.40;;;;;;5033294;28;20510;-70
2022/06/24 11:33:22;;;;;;;11.40;2.55;;;25.20;83.90;;;;;;5032968;28;20041;-69
2022/06/24 11:35:49;;;;;;;6.82;1.80;;;25.20;84.50;;;;;;5033274;28;20034;-72
2022/06/24 11:38:19;;;;;;;8.25;1.80;;;25.10;85.00;;;;;;5032860;28;20463;-71
2022/06/24 11:40:46;;;;;;;4.82;1.55;;;25.00;86.20;;;;;;5032642;28;20043;-70
2022/06/24 11:43:13;;;;;;;4.85;1.55;;;25.20;86.70;;;;;;5032714;28;20096;-70
2022/06/24 11:45:49;;;;;;;6.82;1.45;;;25.20;86.20;;;;;;5033121;28;20586;-72
2022/06/24 11:48:23;;;;;;;6.78;2.90;;;25.10;85.60;;;;;;5032776;28;20025;-71
2022/06/24 11:50:53;;;;;;;4.45;1.90;;;25.10;86.60;;;;;;5032797;28;20029;-71
2022/06/24 11:53:24;;;;;;;3.90;1.77;;;25.20;87.10;;;;;;5032739;28;20033;-70
2022/06/24 11:55:50;;;;;;;2.65;1.50;;;25.10;87.70;;;;;;5032619;28;20026;-71
2022/06/24 11:58:18;;;;;;;5.70;1.85;;;25.00;87.80;;;;;;5032590;28;20247;-70
2022/06/24 12:00:44;;;;;;;;;;;25.00;88.60;;;;;;5033311;28;20033;-70
2022/06/24 12:03:11;;;;;;;2.97;1.20;;;25.00;88.20;;;;;;5031321;28;19909;-69
2022/06/24 12:05:44;;;;;;;5.55;1.88;;;25.00;88.70;;;;;;5032734;28;20037;-69
2022/06/24 12:08:10;;;;;;;9.43;2.65;;;25.10;89.50;;;;;;5032399;28;20030;-71
2022/06/24 12:10:47;;;;;;;3.30;1.40;;;25.20;88.10;;;;;;5032329;28;20044;-70
2022/06/24 12:13:24;;;;;;;5.18;1.42;;;25.20;87.30;;;;;;5032287;28;20026;-71
2022/06/24 12:15:52;;;;;;;3.85;1.52;;;25.20;87.30;;;;;;5031459;28;20501;-69
2022/06/24 12:18:19;;;;;;;9.13;1.77;;;25.20;86.90;;;;;;5032025;28;20087;-69
2022/06/24 12:21:06;;;;;;;4.57;1.55;;;25.20;86.50;;;;;;5031997;28;20026;-72
2022/06/24 12:23:35;;;;;;;3.13;1.40;;;25.30;86.80;;;;;;5032132;28;20022;-70
2022/06/24 12:26:22;;;;;;;3.90;1.45;;;25.40;87.60;;;;;;5031981;28;20467;-70
2022/06/24 12:29:00;;;;;;;3.33;1.27;;;25.60;86.40;;;;;;5031742;28;20121;-69
2022/06/24 12:31:25;;;;;;;4.13;1.30;;;25.50;85.80;;;;;;5031653;28;20034;-69
2022/06/24 12:33:53;;;;;;;3.15;1.60;;;25.50;85.10;;;;;;5031945;28;20052;-70
2022/06/24 12:36:21;;;;;;;5.85;1.40;;;25.50;85.20;;;;;;5031724;28;20109;-71
2022/06/24 12:38:53;;;;;;;3.55;1.48;;;25.60;85.50;;;;;;5031798;28;20092;-71
2022/06/24 12:41:20;;;;;;;6.60;1.45;;;25.60;84.90;;;;;;5031831;28;20037;-70
2022/06/24 12:43:55;;;;;;;7.18;1.60;;;25.60;85.20;;;;;;5031850;28;20056;-71
2022/06/24 12:52:35;;;;;;;5.75;1.40;;;25.60;84.60;;;;;;5031521;28;20099;-70
2022/06/24 12:55:01;;;;;;;;;;;25.80;84.70;;;;;;5031782;28;20454;-70
2022/06/24 12:57:27;;;;;;;5.72;1.38;;;25.80;84.60;;;;;;5031716;28;19901;-69
2022/06/24 12:59:52;;;;;;;4.35;1.58;;;25.80;84.00;;;;;;5031066;28;20120;-69
2022/06/24 13:02:18;;;;;;;2.50;1.38;;;25.70;84.00;;;;;;5031242;28;20074;-70
2022/06/24 13:04:44;;;;;;;6.60;1.83;;;25.90;83.60;;;;;;5031023;28;20105;-69
2022/06/24 13:07:09;;;;;;;2.42;1.13;;;25.90;83.80;;;;;;5031137;28;20018;-68
2022/06/24 13:09:35;;;;;;;2.83;1.40;;;25.80;84.40;;;;;;5031335;28;20040;-69